createdAt,value
2019-04-10T00:02:26.469Z,15.57
2019-04-10T00:04:59.166Z,17.97
2019-04-10T00:07:31.323Z,18.20
2019-04-10T00:10:05.573Z,17.63
2019-04-10T00:12:38.836Z,15.63
2019-04-10T00:15:10.659Z,18.70
2019-04-10T00:17:42.956Z,16.60
2019-04-10T00:20:18.379Z,19.07
2019-04-10T00:22:50.869Z,15.70
2019-04-10T00:25:23.067Z,16.67
2019-04-10T00:27:55.127Z,15.90
2019-04-10T00:30:33.329Z,15.97
2019-04-10T00:33:05.241Z,19.43
2019-04-10T00:35:37.265Z,16.27
2019-04-10T00:38:09.629Z,17.20
2019-04-10T00:40:43.627Z,14.00
2019-04-10T00:43:16.948Z,16.10
2019-04-10T00:45:51.958Z,16.07
2019-04-10T00:48:24.070Z,20.10
2019-04-10T00:50:57.098Z,15.13
2019-04-10T00:53:29.595Z,17.07
2019-04-10T00:56:01.972Z,20.17
2019-04-10T00:58:35.303Z,18.33
2019-04-10T01:01:07.793Z,15.33
2019-04-10T01:03:43.768Z,14.17
2019-04-10T01:06:16.167Z,14.40
2019-04-10T01:08:48.991Z,14.97
2019-04-10T01:11:21.529Z,15.23
2019-04-10T01:13:53.768Z,16.13
2019-04-10T01:16:27.076Z,14.13
2019-04-10T01:18:59.525Z,15.10
2019-04-10T01:21:32.527Z,13.90
2019-04-10T01:24:05.724Z,15.00
2019-04-10T01:26:43.871Z,16.97
2019-04-10T01:29:16.300Z,14.13
2019-04-10T01:31:48.085Z,13.10
2019-04-10T01:34:21.159Z,18.57
2019-04-10T01:36:54.546Z,14.53
2019-04-10T01:39:28.626Z,14.07
2019-04-10T01:42:00.949Z,15.53
2019-04-10T01:44:33.057Z,17.10
2019-04-10T01:47:04.990Z,14.23
2019-04-10T01:49:37.908Z,12.40
2019-04-10T01:52:10.878Z,16.90
2019-04-10T01:54:45.584Z,19.77
2019-04-10T01:57:17.929Z,15.57
2019-04-10T01:59:50.209Z,14.10
2019-04-10T02:02:23.809Z,15.03
2019-04-10T02:04:56.799Z,13.83
2019-04-10T02:07:29.852Z,15.13
2019-04-10T02:10:03.686Z,15.97
2019-04-10T02:12:37.588Z,16.70
2019-04-10T02:15:13.942Z,16.10
2019-04-10T02:17:44.490Z,18.40
2019-04-10T02:20:16.840Z,18.83
2019-04-10T02:22:49.911Z,18.67
2019-04-10T02:25:22.111Z,16.97
2019-04-10T02:27:56.388Z,18.57
2019-04-10T02:30:30.220Z,19.00
2019-04-10T02:33:02.881Z,23.20
2019-04-10T02:35:37.844Z,21.10
2019-04-10T02:38:26.017Z,18.73
2019-04-10T02:40:45.598Z,20.07
2019-04-10T02:43:21.069Z,17.13
2019-04-10T02:45:53.264Z,25.53
2019-04-10T02:48:25.311Z,20.17
2019-04-10T02:50:57.689Z,20.37
2019-04-10T02:53:29.741Z,22.60
2019-04-10T02:56:03.102Z,21.67
2019-04-10T02:58:35.460Z,20.67
2019-04-10T03:01:07.515Z,26.30
2019-04-10T03:03:40.320Z,26.77
2019-04-10T03:06:13.515Z,23.47
2019-04-10T03:09:02.141Z,20.83
2019-04-10T03:11:24.302Z,25.67
2019-04-10T03:13:59.105Z,21.37
2019-04-10T03:16:31.397Z,23.40
2019-04-10T03:19:09.779Z,21.70
2019-04-10T03:22:03.910Z,21.53
2019-04-10T03:24:35.968Z,25.43
2019-04-10T03:27:08.294Z,22.83
2019-04-10T03:29:44.890Z,24.73
2019-04-10T03:32:36.574Z,22.23
2019-04-10T03:35:10.409Z,24.20
2019-04-10T03:37:51.578Z,23.70
2019-04-10T03:40:23.690Z,24.80
2019-04-10T03:42:57.229Z,22.97
2019-04-10T03:45:30.766Z,21.80
2019-04-10T03:48:04.765Z,23.93
2019-04-10T03:50:36.919Z,20.60
2019-04-10T03:53:09.737Z,27.80
2019-04-10T03:55:41.770Z,24.90
2019-04-10T03:58:14.171Z,29.83
2019-04-10T04:00:50.646Z,25.13
2019-04-10T04:03:23.079Z,24.73
2019-04-10T04:05:55.191Z,22.37
2019-04-10T04:08:27.822Z,20.40
2019-04-10T04:11:01.431Z,17.57
2019-04-10T04:13:33.918Z,25.77
2019-04-10T04:16:06.785Z,24.93
2019-04-10T04:18:39.427Z,27.77
2019-04-10T04:21:11.778Z,26.07
2019-04-10T04:23:44.696Z,25.10
2019-04-10T04:26:16.580Z,22.37
2019-04-10T04:28:49.426Z,21.23
2019-04-10T04:31:27.469Z,22.03
2019-04-10T04:33:59.885Z,25.67
2019-04-10T04:36:31.650Z,24.07
2019-04-10T04:39:17.473Z,22.30
2019-04-10T04:41:42.126Z,30.13
2019-04-10T04:44:14.670Z,22.07
2019-04-10T04:46:47.138Z,25.70
2019-04-10T04:49:20.519Z,25.73
2019-04-10T04:51:58.540Z,24.00
2019-04-10T04:54:31.011Z,25.27
2019-04-10T04:57:03.050Z,21.57
2019-04-10T04:59:34.949Z,25.00
2019-04-10T05:02:07.897Z,20.17
2019-04-10T05:04:40.289Z,18.00
2019-04-10T05:07:13.442Z,24.77
2019-04-10T05:09:45.985Z,18.00
2019-04-10T05:12:18.329Z,19.53
2019-04-10T05:14:51.533Z,17.27
2019-04-10T05:17:30.929Z,15.13
2019-04-10T05:20:05.600Z,21.50
2019-04-10T05:22:37.649Z,25.70
2019-04-10T05:25:11.152Z,27.83
2019-04-10T05:27:43.432Z,22.90
2019-04-10T05:30:16.403Z,15.93
2019-04-10T05:32:49.358Z,17.40
2019-04-10T05:35:21.862Z,14.27
2019-04-10T05:37:54.190Z,14.60
2019-04-10T05:40:28.568Z,19.90
2019-04-10T05:43:01.606Z,16.57
2019-04-10T05:45:33.962Z,16.00
2019-04-10T05:48:06.862Z,13.97
2019-04-10T05:50:40.069Z,15.93
2019-04-10T05:53:12.049Z,21.43
2019-04-10T05:55:45.208Z,13.17
2019-04-10T05:58:17.535Z,11.20
2019-04-10T06:00:50.010Z,15.20
2019-04-10T06:03:25.529Z,16.00
2019-04-10T06:06:00.432Z,22.43
2019-04-10T06:08:33.315Z,15.30
2019-04-10T06:11:06.592Z,13.40
2019-04-10T06:13:45.148Z,14.17
2019-04-10T06:16:17.734Z,18.70
2019-04-10T06:18:51.373Z,15.57
2019-04-10T06:21:28.782Z,13.27
2019-04-10T06:24:03.548Z,14.57
2019-04-10T06:26:35.720Z,14.13
2019-04-10T06:29:07.590Z,15.33
2019-04-10T06:31:39.551Z,13.10
2019-04-10T06:34:17.546Z,16.10
2019-04-10T06:36:49.457Z,11.20
2019-04-10T06:39:21.699Z,18.30
2019-04-10T06:41:53.903Z,15.00
2019-04-10T06:44:26.030Z,15.50
2019-04-10T06:46:58.089Z,15.83
2019-04-10T06:49:31.125Z,10.83
2019-04-10T06:52:03.454Z,11.33
2019-04-10T06:54:44.842Z,11.90
2019-04-10T06:57:17.000Z,8.67
2019-04-10T06:59:48.858Z,15.23
2019-04-10T07:02:27.087Z,17.00
2019-04-10T07:05:04.903Z,12.87
2019-04-10T07:07:46.365Z,9.47
2019-04-10T07:10:20.622Z,11.70
2019-04-10T07:12:41.622Z,12.30
2019-04-10T07:15:18.516Z,14.47
2019-04-10T07:17:49.165Z,11.87
2019-04-10T07:20:22.430Z,7.63
2019-04-10T07:22:55.425Z,8.40
2019-04-10T07:25:28.438Z,6.97
2019-04-10T07:28:01.406Z,14.90
2019-04-10T07:30:35.903Z,13.07
2019-04-10T07:33:08.121Z,7.80
2019-04-10T07:35:46.432Z,10.47
2019-04-10T07:38:21.112Z,9.17
2019-04-10T07:40:52.710Z,7.90
2019-04-10T07:43:27.506Z,7.10
2019-04-10T07:45:58.501Z,10.53
2019-04-10T07:48:32.003Z,9.53
2019-04-10T07:51:05.340Z,6.57
2019-04-10T07:53:37.739Z,8.53
2019-04-10T07:56:15.086Z,8.47
2019-04-10T07:58:43.991Z,6.97
2019-04-10T08:01:16.242Z,11.47
2019-04-10T08:03:51.283Z,7.90
2019-04-10T08:06:23.511Z,9.73
2019-04-10T08:08:55.970Z,7.17
2019-04-10T08:11:33.972Z,5.70
2019-04-10T08:14:08.195Z,9.27
2019-04-10T08:16:39.739Z,8.43
2019-04-10T08:19:12.472Z,7.33
2019-04-10T08:21:44.813Z,7.73
2019-04-10T08:24:16.769Z,6.37
2019-04-10T08:26:49.240Z,8.17
2019-04-10T08:29:21.865Z,6.43
2019-04-10T08:31:53.820Z,5.33
2019-04-10T08:34:26.094Z,6.03
2019-04-10T08:37:02.111Z,7.60
2019-04-10T08:39:41.140Z,5.33
2019-04-10T08:42:08.558Z,5.10
2019-04-10T08:44:40.675Z,6.67
2019-04-10T08:47:15.228Z,12.90
2019-04-10T08:49:47.473Z,8.37
2019-04-10T08:52:20.047Z,6.27
2019-04-10T08:54:53.206Z,6.60
2019-04-10T08:57:25.656Z,5.37
2019-04-10T08:59:58.318Z,6.17
2019-04-10T09:02:30.459Z,8.30
2019-04-10T09:05:05.690Z,5.63
2019-04-10T09:07:38.186Z,7.70
2019-04-10T09:10:10.730Z,7.27
2019-04-10T09:12:43.041Z,6.60
2019-04-10T09:15:16.074Z,9.03
2019-04-10T09:17:47.967Z,8.80
2019-04-10T09:20:20.039Z,5.40
2019-04-10T09:23:14.443Z,7.57
2019-04-10T09:25:27.025Z,6.87
2019-04-10T09:28:00.098Z,6.60
2019-04-10T09:30:33.847Z,5.83
2019-04-10T09:33:18.387Z,9.83
2019-04-10T09:35:40.553Z,4.80
2019-04-10T09:38:16.773Z,6.50
2019-04-10T09:40:49.233Z,8.70
2019-04-10T09:43:21.180Z,8.27
2019-04-10T09:45:53.664Z,6.07
2019-04-10T09:48:26.423Z,5.87
2019-04-10T09:50:58.499Z,6.93
2019-04-10T09:53:30.981Z,7.03
2019-04-10T09:56:03.349Z,7.33
2019-04-10T09:58:35.319Z,9.93
2019-04-10T10:01:14.522Z,8.00
2019-04-10T10:03:46.557Z,6.47
2019-04-10T10:06:27.117Z,5.83
2019-04-10T10:09:00.532Z,8.57
2019-04-10T10:11:34.112Z,11.97
2019-04-10T10:14:06.257Z,8.23
2019-04-10T10:16:38.414Z,7.20
2019-04-10T10:19:14.188Z,4.63
2019-04-10T10:21:46.418Z,10.33
2019-04-10T10:24:19.428Z,6.23
2019-04-10T10:26:51.548Z,8.97
2019-04-10T10:29:23.814Z,6.53
2019-04-10T10:31:56.944Z,7.07
2019-04-10T10:34:29.246Z,9.47
2019-04-10T10:37:03.909Z,6.17
2019-04-10T10:39:37.240Z,8.50
2019-04-10T10:42:09.637Z,6.10
2019-04-10T10:44:42.479Z,8.57
2019-04-10T10:47:15.823Z,7.43
2019-04-10T10:49:48.761Z,8.77
2019-04-10T10:52:21.567Z,5.93
2019-04-10T10:54:53.809Z,8.37
2019-04-10T10:57:26.951Z,5.67
2019-04-10T10:59:59.908Z,8.20
2019-04-10T11:02:33.579Z,6.57
2019-04-10T11:05:07.178Z,5.20
2019-04-10T11:07:40.400Z,5.47
2019-04-10T11:10:24.089Z,6.13
2019-04-10T11:12:55.278Z,6.30
2019-04-10T11:15:27.849Z,7.87
2019-04-10T11:18:00.280Z,4.83
2019-04-10T11:20:32.574Z,6.37
2019-04-10T11:23:06.138Z,5.83
2019-04-10T11:25:40.147Z,5.33
2019-04-10T11:28:13.926Z,9.73
2019-04-10T11:30:47.459Z,11.40
2019-04-10T11:33:20.496Z,7.97
2019-04-10T11:35:53.370Z,4.80
2019-04-10T11:38:27.043Z,7.77
2019-04-10T11:41:02.999Z,5.70
2019-04-10T11:43:39.010Z,7.77
2019-04-10T11:46:13.571Z,5.27
2019-04-10T11:48:46.873Z,6.03
2019-04-10T11:51:18.880Z,7.60
2019-04-10T11:53:58.959Z,5.00
2019-04-10T11:56:33.771Z,4.47
2019-04-10T11:59:07.614Z,5.80
2019-04-10T12:01:39.461Z,8.17
2019-04-10T12:04:11.489Z,8.10
2019-04-10T12:06:47.813Z,6.20
2019-04-10T12:11:55.315Z,5.20
2019-04-10T12:14:28.054Z,6.87
2019-04-10T12:17:09.656Z,8.70
2019-04-10T12:19:42.473Z,7.43
2019-04-10T12:22:15.700Z,8.47
2019-04-10T12:24:49.912Z,8.70
2019-04-10T12:27:23.073Z,10.33
2019-04-10T12:29:55.403Z,6.73
2019-04-10T12:32:28.511Z,5.90
2019-04-10T12:35:00.839Z,7.20
2019-04-10T12:37:32.899Z,6.20
2019-04-10T12:40:06.086Z,4.20
2019-04-10T12:42:41.859Z,5.87
2019-04-10T12:45:15.735Z,5.70
2019-04-10T12:47:48.114Z,5.90
2019-04-10T12:50:20.608Z,11.23
2019-04-10T12:52:52.459Z,4.63
2019-04-10T12:55:24.319Z,4.60
2019-04-10T12:58:06.533Z,6.67
2019-04-10T13:00:31.667Z,7.93
2019-04-10T13:03:05.134Z,7.63
2019-04-10T13:05:37.817Z,6.23
2019-04-10T13:08:19.120Z,8.13
2019-04-10T13:10:45.555Z,8.50
2019-04-10T13:13:17.883Z,6.67
2019-04-10T13:15:50.060Z,8.80
2019-04-10T13:18:22.542Z,8.33
2019-04-10T13:20:55.756Z,9.13
2019-04-10T13:23:28.699Z,7.17
2019-04-10T13:26:05.456Z,7.43
2019-04-10T13:28:41.512Z,6.87
2019-04-10T13:31:14.107Z,6.13
2019-04-10T13:33:46.886Z,7.60
2019-04-10T13:36:19.655Z,6.27
2019-04-10T13:38:54.828Z,6.23
2019-04-10T13:41:28.238Z,7.53
2019-04-10T13:44:06.652Z,8.47
2019-04-10T13:46:38.799Z,6.37
2019-04-10T13:49:11.561Z,8.17
2019-04-10T13:51:43.919Z,7.87
2019-04-10T13:54:16.557Z,8.23
2019-04-10T13:56:49.659Z,14.27
2019-04-10T13:59:22.646Z,8.23
2019-04-10T14:01:54.981Z,10.30
2019-04-10T14:04:27.257Z,10.00
2019-04-10T14:06:59.834Z,11.37
2019-04-10T14:09:42.494Z,7.53
2019-04-10T14:12:05.983Z,10.43
2019-04-10T14:14:37.869Z,6.57
2019-04-10T14:17:09.820Z,17.60
2019-04-10T14:19:42.811Z,8.17
2019-04-10T14:22:15.613Z,9.07
2019-04-10T14:24:49.289Z,8.07
2019-04-10T14:27:24.492Z,9.43
2019-04-10T14:29:56.934Z,10.60
2019-04-10T14:32:31.390Z,8.40
2019-04-10T14:35:08.537Z,8.07
2019-04-10T14:37:41.799Z,17.53
2019-04-10T14:40:15.818Z,12.10
2019-04-10T14:42:49.407Z,9.10
2019-04-10T14:45:27.745Z,10.63
2019-04-10T14:48:00.174Z,14.97
2019-04-10T14:50:32.159Z,12.83
2019-04-10T14:53:04.504Z,11.63
2019-04-10T14:55:37.744Z,11.33
2019-04-10T14:58:20.549Z,13.53
2019-04-10T15:00:46.723Z,11.23
2019-04-10T15:03:20.479Z,11.27
2019-04-10T15:05:54.494Z,11.63
2019-04-10T15:08:26.570Z,13.00
2019-04-10T15:11:00.332Z,16.60
2019-04-10T15:13:33.934Z,17.33
2019-04-10T15:16:07.157Z,16.60
2019-04-10T15:18:39.519Z,13.70
2019-04-10T15:21:12.713Z,11.03
2019-04-10T15:23:44.993Z,10.87
2019-04-10T15:26:17.161Z,13.23
2019-04-10T15:28:52.038Z,12.00
2019-04-10T15:31:26.373Z,12.67
2019-04-10T15:33:58.669Z,15.93
2019-04-10T15:36:31.786Z,14.77
2019-04-10T15:39:06.550Z,12.20
2019-04-10T15:41:39.196Z,17.30
2019-04-10T15:44:11.987Z,15.13
2019-04-10T15:46:47.205Z,47.70
2019-04-10T15:49:19.479Z,13.13
2019-04-10T15:51:51.421Z,12.70
2019-04-10T15:54:23.715Z,14.00
2019-04-10T15:56:55.778Z,17.63
2019-04-10T15:59:28.191Z,16.87
2019-04-10T16:02:01.529Z,14.90
2019-04-10T16:04:34.140Z,18.33
2019-04-10T16:07:06.401Z,11.67
2019-04-10T16:09:48.454Z,21.13
2019-04-10T16:12:20.703Z,17.70
2019-04-10T16:14:52.869Z,14.60
2019-04-10T16:17:29.793Z,14.27
2019-04-10T16:20:07.386Z,12.50
2019-04-10T16:22:41.179Z,15.27
2019-04-10T16:25:18.269Z,18.33
2019-04-10T16:27:50.453Z,19.80
2019-04-10T16:30:24.303Z,12.43
2019-04-10T16:32:56.577Z,12.90
2019-04-10T16:35:32.478Z,19.97
2019-04-10T16:38:05.143Z,20.37
2019-04-10T16:40:38.329Z,23.93
2019-04-10T16:43:11.674Z,14.97
2019-04-10T16:45:44.000Z,15.03
2019-04-10T16:48:20.996Z,18.10
2019-04-10T16:50:56.309Z,16.07
2019-04-10T16:53:28.597Z,14.97
2019-04-10T16:56:01.183Z,26.73
2019-04-10T16:58:33.922Z,15.93
2019-04-10T17:01:06.530Z,16.60
2019-04-10T17:03:40.139Z,18.03
2019-04-10T17:06:17.570Z,27.27
2019-04-10T17:08:58.428Z,19.63
2019-04-10T17:11:34.239Z,23.10
2019-04-10T17:14:06.799Z,19.23
2019-04-10T17:16:39.972Z,22.60
2019-04-10T17:19:12.239Z,21.67
2019-04-10T17:21:44.635Z,21.63
2019-04-10T17:24:17.422Z,19.23
2019-04-10T17:26:55.146Z,21.00
2019-04-10T17:29:27.399Z,19.27
2019-04-10T17:32:04.633Z,22.70
2019-04-10T17:34:38.970Z,21.03
2019-04-10T17:37:11.742Z,26.30
2019-04-10T17:39:47.205Z,28.37
2019-04-10T17:42:20.320Z,43.27
2019-04-10T17:44:52.340Z,26.97
2019-04-10T17:47:25.026Z,28.00
2019-04-10T17:49:58.089Z,20.27
2019-04-10T17:52:33.105Z,17.27
2019-04-10T17:55:07.325Z,19.90
2019-04-10T17:57:42.908Z,18.23
2019-04-10T18:00:16.558Z,20.30
2019-04-10T18:02:48.851Z,18.73
2019-04-10T18:05:22.340Z,20.10
2019-04-10T18:07:54.809Z,21.30
2019-04-10T18:10:39.538Z,26.33
2019-04-10T18:13:00.878Z,24.37
2019-04-10T18:15:33.249Z,27.00
2019-04-10T18:18:07.196Z,26.10
2019-04-10T18:20:40.107Z,26.37
2019-04-10T18:23:13.417Z,22.47
2019-04-10T18:25:46.432Z,26.30
2019-04-10T18:28:19.211Z,23.20
2019-04-10T18:30:52.280Z,33.27
2019-04-10T18:33:24.613Z,31.97
2019-04-10T18:35:57.399Z,30.07
2019-04-10T18:38:33.323Z,46.50
2019-04-10T18:41:08.565Z,35.70
2019-04-10T18:43:40.310Z,36.27
2019-04-10T18:46:16.411Z,36.27
2019-04-10T18:48:47.931Z,32.13
2019-04-10T18:51:23.982Z,27.10
2019-04-10T18:53:57.590Z,28.90
2019-04-10T18:56:29.839Z,32.77
2019-04-10T18:59:06.731Z,25.47
2019-04-10T19:01:59.879Z,31.67
2019-04-10T19:04:37.032Z,35.73
2019-04-10T19:07:25.089Z,25.70
2019-04-10T19:10:02.177Z,31.03
2019-04-10T19:12:36.939Z,34.67
2019-04-10T19:15:15.017Z,32.37
2019-04-10T19:17:57.709Z,25.83
2019-04-10T19:20:31.364Z,30.20
2019-04-10T19:23:45.721Z,39.93
2019-04-10T19:26:23.268Z,35.17
2019-04-10T19:28:55.460Z,41.40
2019-04-10T19:31:28.230Z,32.60
2019-04-10T19:34:01.024Z,35.13
2019-04-10T19:36:34.417Z,39.20
2019-04-10T19:39:07.906Z,32.10
2019-04-10T19:41:41.829Z,34.47
2019-04-10T19:44:25.247Z,28.30
2019-04-10T19:47:04.166Z,34.23
2019-04-10T19:49:38.522Z,36.63
2019-04-10T19:52:14.767Z,28.30
2019-04-10T19:54:47.277Z,32.77
2019-04-10T19:57:22.279Z,29.43
2019-04-10T19:59:55.656Z,28.67
2019-04-10T20:02:27.833Z,35.53
2019-04-10T20:04:59.750Z,33.20
2019-04-10T20:07:31.749Z,31.77
2019-04-10T20:10:05.424Z,31.03
2019-04-10T20:12:40.365Z,31.50
2019-04-10T20:15:14.015Z,24.07
2019-04-10T20:17:50.367Z,24.43
2019-04-10T20:20:23.597Z,23.43
2019-04-10T20:22:56.341Z,24.20
2019-04-10T20:25:28.299Z,25.30
2019-04-10T20:28:00.497Z,21.37
2019-04-10T20:30:33.539Z,19.07
2019-04-10T20:33:06.353Z,20.83
2019-04-10T20:35:38.649Z,18.83
2019-04-10T20:38:11.409Z,19.10
2019-04-10T20:40:44.340Z,18.10
2019-04-10T20:43:16.629Z,18.57
2019-04-10T20:45:49.678Z,22.57
2019-04-10T20:48:22.460Z,17.93
2019-04-10T20:50:54.477Z,21.17
2019-04-10T20:53:33.771Z,19.27
2019-04-10T20:56:06.239Z,15.87
2019-04-10T20:58:38.639Z,19.97
2019-04-10T21:01:11.029Z,20.27
2019-04-10T21:03:44.600Z,17.27
2019-04-10T21:06:17.592Z,18.17
2019-04-10T21:08:50.397Z,20.13
2019-04-10T21:11:22.969Z,18.87
2019-04-10T21:13:55.030Z,23.27
2019-04-10T21:16:27.373Z,20.47
2019-04-10T21:19:00.236Z,22.80
2019-04-10T21:21:32.926Z,29.10
2019-04-10T21:24:04.958Z,26.50
2019-04-10T21:26:36.989Z,28.83
2019-04-10T21:29:11.075Z,40.40
2019-04-10T21:31:50.859Z,33.40
2019-04-10T21:34:30.521Z,27.27
2019-04-10T21:37:03.727Z,26.87
2019-04-10T21:39:36.159Z,26.27
2019-04-10T21:42:18.130Z,30.33
2019-04-10T21:44:42.931Z,25.03
2019-04-10T21:47:15.178Z,36.93
2019-04-10T21:49:48.398Z,29.10
2019-04-10T21:52:20.655Z,28.13
2019-04-10T21:55:00.041Z,39.13
2019-04-10T21:57:30.501Z,28.73
2019-04-10T22:00:05.217Z,25.17
2019-04-10T22:02:40.051Z,30.00
2019-04-10T22:05:14.257Z,32.63
2019-04-10T22:07:48.320Z,33.70
2019-04-10T22:10:25.980Z,34.53
2019-04-10T22:12:59.515Z,29.27
2019-04-10T22:15:33.443Z,33.30
2019-04-10T22:18:05.390Z,28.53
2019-04-10T22:20:37.359Z,30.53
2019-04-10T22:23:09.864Z,34.90
2019-04-10T22:25:41.999Z,36.13
2019-04-10T22:28:15.038Z,31.63
2019-04-10T22:30:48.336Z,32.83
2019-04-10T22:33:20.719Z,30.97
2019-04-10T22:35:52.639Z,29.03
2019-04-10T22:38:25.013Z,31.23
2019-04-10T22:40:58.116Z,37.63
2019-04-10T22:43:30.871Z,36.53
2019-04-10T22:46:02.929Z,34.10
2019-04-10T22:48:41.639Z,31.37
2019-04-10T22:51:15.010Z,38.77
2019-04-10T22:53:47.975Z,38.47
2019-04-10T22:56:27.331Z,34.97
2019-04-10T22:58:59.698Z,37.90
2019-04-10T23:01:33.327Z,31.30
2019-04-10T23:04:05.939Z,45.67
2019-04-10T23:06:38.538Z,37.90
2019-04-10T23:09:11.951Z,46.73
2019-04-10T23:11:46.466Z,48.27
2019-04-10T23:14:18.583Z,113.23
2019-04-10T23:16:50.553Z,48.17
2019-04-10T23:19:22.500Z,63.90
2019-04-10T23:21:54.667Z,90.63
2019-04-10T23:24:27.708Z,48.90
2019-04-10T23:26:59.927Z,38.47
2019-04-10T23:29:32.623Z,35.60
2019-04-10T23:32:05.817Z,38.07
2019-04-10T23:34:38.939Z,34.17
2019-04-10T23:37:11.349Z,33.37
2019-04-10T23:39:48.967Z,34.30
2019-04-10T23:42:21.390Z,32.13
2019-04-10T23:44:55.310Z,35.40
2019-04-10T23:47:28.486Z,35.17
2019-04-10T23:50:01.799Z,33.43
2019-04-10T23:52:34.091Z,42.97
2019-04-10T23:55:07.992Z,39.67
2019-04-10T23:57:41.811Z,39.77
